Aviation Digital Data Service (ADDS)

Output produced by METARs form (1416 UTC 25 January 2015)
found at http://aviationweather.gov/adds/metars/
 
KARA 251353Z 22007KT 6SM BR CLR 08/07 A3003 RMK AO2 SLP169 T00780072